Time;durP1;ratioP1;P1;durP2;ratioP2;P2;SDS_P1;SDS_P2;PMS_P1;PMS_P2;Temp;Humidity;BMP_temperature;BMP_pressure;BME280_temperature;BME280_humidity;BME280_pressure;Samples;Min_cycle;Max_cycle;Signal;HPM_P1;HPM_P2
2021/06/25 00:03:05;;;;;;;6.78;3.08;;;22.10;61.90;;;;;;20904953;28;20118;-20
2021/06/25 00:13:06;;;;;;;8.98;3.17;;;22.10;61.80;;;;;;20864166;23;20518;-22
2021/06/25 00:23:06;;;;;;;7.15;3.33;;;22.10;61.80;;;;;;20765865;28;20065;-19
2021/06/25 00:33:07;;;;;;;6.25;2.72;;;22.10;61.70;;;;;;20772863;28;20033;-19
2021/06/25 00:43:07;;;;;;;4.57;3.15;;;22.00;61.70;;;;;;20770325;28;20112;-19
2021/06/25 00:53:08;;;;;;;4.55;2.65;;;22.10;61.70;;;;;;20772632;28;20030;-20
2021/06/25 01:03:08;;;;;;;6.38;2.75;;;22.10;61.60;;;;;;20760449;28;20638;-20
2021/06/25 01:13:09;;;;;;;4.10;2.73;;;22.10;61.60;;;;;;20759328;28;20034;-20
2021/06/25 01:23:10;;;;;;;5.00;2.88;;;22.10;61.60;;;;;;20786795;28;20519;-20
2021/06/25 01:33:13;;;;;;;6.35;3.42;;;22.10;61.60;;;;;;20777958;28;20068;-20
2021/06/25 01:43:14;;;;;;;3.15;2.50;;;22.10;61.60;;;;;;20772331;28;20022;-20
2021/06/25 01:53:16;;;;;;;3.50;2.50;;;22.00;61.60;;;;;;20757631;28;20030;-20
2021/06/25 02:03:17;;;;;;;3.78;2.47;;;22.00;61.60;;;;;;20757688;28;20087;-20
2021/06/25 02:13:18;;;;;;;3.83;2.85;;;22.00;61.60;;;;;;20742936;28;20486;-20
2021/06/25 02:23:19;;;;;;;5.65;2.50;;;22.00;61.60;;;;;;20743535;28;20367;-20
2021/06/25 02:33:19;;;;;;;7.40;2.70;;;22.00;61.60;;;;;;20743123;28;20033;-20
2021/06/25 02:43:20;;;;;;;4.55;2.65;;;22.00;61.60;;;;;;20741808;28;20026;-20
2021/06/25 02:53:20;;;;;;;4.22;2.75;;;22.00;61.60;;;;;;20742249;28;20029;-20
2021/06/25 03:03:22;;;;;;;4.30;2.60;;;21.90;61.50;;;;;;20740575;28;20064;-20
2021/06/25 03:13:22;;;;;;;3.20;2.20;;;22.00;61.60;;;;;;20739801;28;20395;-20
2021/06/25 03:23:23;;;;;;;3.87;2.40;;;22.00;61.60;;;;;;20739250;28;20026;-20
2021/06/25 03:33:23;;;;;;;4.28;2.30;;;22.00;61.60;;;;;;20752521;28;20026;-19
2021/06/25 03:43:24;;;;;;;2.42;1.98;;;22.00;61.50;;;;;;20742370;28;20048;-20
2021/06/25 03:53:25;;;;;;;3.37;2.40;;;21.90;61.50;;;;;;20741672;28;20033;-20
2021/06/25 04:03:25;;;;;;;4.40;2.60;;;21.90;61.50;;;;;;20772018;28;20556;-21
2021/06/25 04:13:27;;;;;;;3.83;2.15;;;21.90;61.50;;;;;;20760601;28;20048;-21
2021/06/25 04:23:28;;;;;;;2.78;2.50;;;21.90;61.50;;;;;;20774800;28;20026;-21
2021/06/25 04:33:28;;;;;;;3.35;2.40;;;21.90;61.40;;;;;;20777035;28;20032;-20
2021/06/25 04:43:29;;;;;;;4.07;2.20;;;21.90;61.40;;;;;;20776250;28;20033;-20
2021/06/25 04:53:30;;;;;;;3.42;2.35;;;22.00;61.40;;;;;;20782476;28;20026;-21
2021/06/25 05:03:30;;;;;;;7.10;3.10;;;22.00;61.40;;;;;;20767760;28;20026;-20
2021/06/25 05:13:31;;;;;;;5.28;2.70;;;22.00;61.30;;;;;;20761939;28;20079;-21
2021/06/25 05:23:32;;;;;;;10.73;2.83;;;22.00;61.30;;;;;;20746716;28;20025;-21
2021/06/25 05:33:32;;;;;;;11.30;3.75;;;22.00;61.30;;;;;;20797345;28;20029;-21
2021/06/25 05:43:33;;;;;;;11.10;3.40;;;22.00;61.40;;;;;;20778374;28;20026;-20
2021/06/25 05:53:35;;;;;;;11.85;3.75;;;22.00;61.30;;;;;;20756903;28;20545;-20
2021/06/25 06:03:35;;;;;;;22.40;6.40;;;22.00;61.30;;;;;;20762893;28;20447;-20
2021/06/25 06:13:36;;;;;;;22.73;7.55;;;21.90;61.20;;;;;;20766453;23;20067;-21
2021/06/25 06:33:57;;;;;;;21.10;6.78;;;21.90;61.10;;;;;;20959485;28;20033;-20
2021/06/25 06:43:58;;;;;;;12.02;6.88;;;21.80;61.00;;;;;;20943375;28;20033;-20
2021/06/25 06:54:02;;;;;;;12.10;5.97;;;21.90;60.70;;;;;;20955627;28;20528;-20
2021/06/25 07:04:03;;;;;;;14.68;6.63;;;21.80;60.60;;;;;;20945102;28;20100;-20
2021/06/25 07:14:03;;;;;;;9.93;5.93;;;21.80;60.80;;;;;;20952620;28;20067;-20
2021/06/25 07:24:04;;;;;;;10.90;6.55;;;21.90;60.60;;;;;;20959801;28;20055;-20
2021/06/25 07:34:05;;;;;;;7.00;6.22;;;21.90;60.50;;;;;;20950785;28;20016;-19
2021/06/25 07:44:05;;;;;;;9.93;5.78;;;21.90;60.30;;;;;;20956428;28;20110;-20
2021/06/25 07:54:06;;;;;;;7.40;5.18;;;21.90;60.00;;;;;;20944930;28;20057;-20
2021/06/25 08:04:07;;;;;;;10.05;6.07;;;21.90;59.80;;;;;;20952296;28;20056;-20
2021/06/25 08:14:07;;;;;;;7.22;5.50;;;22.00;59.70;;;;;;20925910;28;20029;-20
2021/06/25 08:24:08;;;;;;;12.57;5.13;;;22.00;59.80;;;;;;20919732;28;20029;-19
2021/06/25 08:34:11;;;;;;;7.83;5.73;;;22.00;59.90;;;;;;20961484;28;20029;-19
2021/06/25 08:44:12;;;;;;;8.23;6.50;;;22.00;59.80;;;;;;20974715;28;20021;-20
2021/06/25 08:54:12;;;;;;;6.68;5.68;;;22.00;60.00;;;;;;20986029;28;20039;-19
2021/06/25 09:04:36;;;;;;;8.95;6.25;;;22.00;59.70;;;;;;20980524;28;20588;-20
2021/06/25 09:15:00;;;;;;;7.97;6.47;;;22.00;59.80;;;;;;20950926;28;20048;-20
2021/06/25 09:25:07;;;;;;;9.38;4.93;;;22.00;59.90;;;;;;20910594;28;20021;-20
2021/06/25 09:35:14;;;;;;;11.00;5.73;;;22.00;60.10;;;;;;20940955;28;20373;-20
2021/06/25 09:45:19;;;;;;;8.45;6.72;;;22.00;60.10;;;;;;20915969;28;20032;-20
2021/06/25 09:55:27;;;;;;;9.90;6.22;;;22.00;59.90;;;;;;20941934;28;20025;-20
2021/06/25 10:05:29;;;;;;;9.65;6.63;;;22.00;59.80;;;;;;20937549;28;20078;-20
2021/06/25 10:15:30;;;;;;;7.32;6.35;;;22.00;60.30;;;;;;20913767;28;20493;-20
2021/06/25 10:25:31;;;;;;;6.72;6.07;;;21.90;60.10;;;;;;20948960;28;20084;-20
2021/06/25 10:35:33;;;;;;;7.72;6.90;;;21.90;60.40;;;;;;20944218;28;20513;-20
2021/06/25 10:45:44;;;;;;;8.50;6.30;;;22.00;60.70;;;;;;20938900;28;20533;-20
2021/06/25 10:55:59;;;;;;;9.20;6.65;;;22.00;60.80;;;;;;20935841;28;20597;-20
2021/06/25 11:06:00;;;;;;;18.88;8.23;;;22.00;60.60;;;;;;20955850;28;20028;-20
2021/06/25 11:16:19;;;;;;;9.85;8.02;;;22.00;60.40;;;;;;20910944;28;20033;-19
2021/06/25 11:26:20;;;;;;;10.35;8.20;;;22.00;60.50;;;;;;20907931;28;20017;-20
2021/06/25 11:36:31;;;;;;;11.90;8.13;;;22.10;61.00;;;;;;20897581;28;20045;-20
2021/06/25 11:46:32;;;;;;;9.57;8.68;;;22.10;60.80;;;;;;20897145;28;20017;-21
2021/06/25 11:56:33;;;;;;;9.38;8.38;;;22.10;60.70;;;;;;20923288;28;20020;-19
2021/06/25 12:06:49;;;;;;;10.55;8.85;;;22.10;60.80;;;;;;20949547;28;20051;-19
2021/06/25 12:16:52;;;;;;;11.52;8.02;;;22.10;60.60;;;;;;20945881;28;20082;-20
2021/06/25 12:26:52;;;;;;;9.25;8.00;;;22.10;60.60;;;;;;20937312;28;20029;-20
2021/06/25 12:36:59;;;;;;;8.48;7.65;;;22.10;60.60;;;;;;20961951;28;20404;-21
2021/06/25 12:47:06;;;;;;;9.05;7.80;;;22.10;60.60;;;;;;20954807;28;20032;-21
2021/06/25 12:57:06;;;;;;;9.70;6.88;;;22.10;60.50;;;;;;20950509;28;20435;-20
2021/06/25 13:07:07;;;;;;;7.72;6.72;;;22.10;60.60;;;;;;20947990;28;20032;-20
2021/06/25 13:17:09;;;;;;;10.82;6.88;;;22.10;61.00;;;;;;20955565;28;20028;-20
2021/06/25 13:27:09;;;;;;;6.28;5.35;;;22.10;60.30;;;;;;20936046;28;20039;-20
2021/06/25 13:37:10;;;;;;;7.43;6.55;;;22.10;60.20;;;;;;20955480;28;20588;-21
2021/06/25 13:47:13;;;;;;;7.47;6.82;;;22.10;60.00;;;;;;20952831;28;20131;-20
2021/06/25 13:57:19;;;;;;;8.65;6.18;;;22.10;60.10;;;;;;20947323;28;20036;-20
2021/06/25 14:07:20;;;;;;;15.90;7.72;;;22.10;60.30;;;;;;20949006;28;20132;-20
2021/06/25 14:17:31;;;;;;;15.00;9.10;;;22.10;59.00;;;;;;20938631;28;20062;-20
2021/06/25 14:27:39;;;;;;;14.90;8.23;;;22.10;59.70;;;;;;20976333;28;20028;-21
2021/06/25 14:37:40;;;;;;;14.55;9.00;;;22.10;59.60;;;;;;20946761;28;20059;-21
2021/06/25 14:47:40;;;;;;;14.68;9.27;;;22.10;59.20;;;;;;20978109;28;20028;-21
2021/06/25 14:57:41;;;;;;;13.53;8.57;;;22.10;58.30;;;;;;20942847;28;20029;-21
2021/06/25 15:07:42;;;;;;;11.98;7.35;;;22.20;58.20;;;;;;20932525;28;20564;-20
2021/06/25 15:17:42;;;;;;;11.07;7.10;;;22.10;57.70;;;;;;20935855;28;20416;-20
2021/06/25 15:27:43;;;;;;;12.13;7.75;;;22.10;57.90;;;;;;20907977;28;20033;-21
2021/06/25 15:37:44;;;;;;;8.93;6.83;;;22.10;58.10;;;;;;20924300;28;20058;-21
2021/06/25 15:47:45;;;;;;;13.40;7.72;;;22.10;57.70;;;;;;20924843;28;20028;-21
2021/06/25 15:57:45;;;;;;;12.70;8.15;;;22.10;57.90;;;;;;20943260;28;20029;-21
2021/06/25 16:07:46;;;;;;;13.15;8.32;;;22.30;57.80;;;;;;20925183;28;20041;-21
2021/06/25 16:17:46;;;;;;;15.52;7.72;;;22.30;58.40;;;;;;20915160;28;20125;-21
2021/06/25 16:27:47;;;;;;;12.20;7.22;;;22.30;58.30;;;;;;20925643;28;20052;-20
2021/06/25 16:37:47;;;;;;;11.60;6.93;;;22.30;58.60;;;;;;20940178;28;20420;-20
2021/06/25 16:47:48;;;;;;;9.93;8.00;;;22.30;58.20;;;;;;20943364;28;20033;-20
2021/06/25 16:57:49;;;;;;;8.53;6.57;;;22.40;57.70;;;;;;20949468;28;20041;-21
2021/06/25 17:07:49;;;;;;;9.13;5.68;;;22.40;57.10;;;;;;20924407;28;20029;-21
2021/06/25 17:17:50;;;;;;;9.90;6.00;;;22.50;56.10;;;;;;20943480;28;20036;-20
2021/06/25 17:27:51;;;;;;;8.63;5.70;;;22.40;55.70;;;;;;20932684;28;20167;-20
2021/06/25 17:37:52;;;;;;;44.30;12.38;;;22.40;55.90;;;;;;20947280;28;20036;-20
2021/06/25 17:47:53;;;;;;;35.30;8.50;;;22.40;56.10;;;;;;20950266;28;20029;-19
2021/06/25 17:57:53;;;;;;;37.28;9.13;;;22.30;56.20;;;;;;20954495;28;20094;-21
2021/06/25 18:07:54;;;;;;;26.58;8.10;;;22.20;56.20;;;;;;20948644;28;20067;-20
2021/06/25 18:18:08;;;;;;;34.47;7.53;;;22.20;56.20;;;;;;20928075;28;20036;-20
2021/06/25 18:28:08;;;;;;;39.40;8.27;;;22.20;57.30;;;;;;20901776;28;20028;-20
2021/06/25 18:38:09;;;;;;;23.30;5.85;;;22.20;57.40;;;;;;20839280;28;20486;-20
2021/06/25 18:48:10;;;;;;;16.85;4.55;;;22.20;57.90;;;;;;20838818;28;20036;-20
2021/06/25 18:58:10;;;;;;;20.02;7.05;;;22.20;57.70;;;;;;20851099;28;20121;-20
2021/06/25 19:08:11;;;;;;;18.42;8.00;;;22.10;57.50;;;;;;20883414;28;20033;-20
2021/06/25 19:18:12;;;;;;;15.43;6.28;;;22.10;57.30;;;;;;20883146;28;20127;-20
2021/06/25 19:28:13;;;;;;;21.33;6.35;;;22.10;57.50;;;;;;20895663;28;20429;-19
2021/06/25 19:38:13;;;;;;;16.80;6.30;;;22.10;57.20;;;;;;20867329;28;20063;-20
2021/06/25 19:48:14;;;;;;;12.70;5.10;;;22.10;57.40;;;;;;20887309;28;20100;-19
2021/06/25 19:58:15;;;;;;;18.50;5.38;;;22.10;57.30;;;;;;20916453;28;20423;-20
2021/06/25 20:08:17;;;;;;;15.60;6.07;;;22.00;56.60;;;;;;20899285;28;20029;-19
2021/06/25 20:18:18;;;;;;;10.23;4.25;;;21.90;57.10;;;;;;20898920;28;20033;-20
2021/06/25 20:28:21;;;;;;;5.63;3.15;;;22.00;57.60;;;;;;20922074;28;20029;-20
2021/06/25 20:38:22;;;;;;;9.05;3.78;;;22.00;58.10;;;;;;20903837;28;20394;-20
2021/06/25 20:48:24;;;;;;;8.98;4.10;;;21.90;58.40;;;;;;20917638;28;20389;-20
2021/06/25 20:58:26;;;;;;;10.77;4.32;;;22.00;58.90;;;;;;20936627;28;20037;-18
2021/06/25 21:08:27;;;;;;;8.90;4.63;;;22.00;59.00;;;;;;20957861;28;20378;-20
2021/06/25 21:18:27;;;;;;;8.07;5.28;;;22.00;59.10;;;;;;20922607;28;20036;-20
2021/06/25 21:28:28;;;;;;;9.77;5.20;;;22.00;59.40;;;;;;20942748;28;20042;-20
2021/06/25 21:38:29;;;;;;;8.50;3.93;;;22.00;59.20;;;;;;20910203;23;20600;-20
2021/06/25 21:48:29;;;;;;;9.52;3.97;;;21.90;57.40;;;;;;20880422;28;20029;-20
2021/06/25 21:58:33;;;;;;;12.10;3.65;;;21.90;56.90;;;;;;20826039;28;20061;-20
2021/06/25 22:08:33;;;;;;;12.20;4.45;;;21.80;57.20;;;;;;20824194;28;20101;-21
2021/06/25 22:18:35;;;;;;;8.30;3.87;;;21.80;58.10;;;;;;20824463;28;20482;-21
2021/06/25 22:28:36;;;;;;;9.50;3.28;;;21.80;58.30;;;;;;20855833;28;20495;-20
2021/06/25 22:38:36;;;;;;;6.97;3.22;;;21.70;57.90;;;;;;20906736;28;20059;-21
2021/06/25 22:48:37;;;;;;;8.20;3.00;;;21.80;57.20;;;;;;20876550;28;20025;-21
2021/06/25 22:58:38;;;;;;;4.22;2.63;;;21.70;57.10;;;;;;20903893;28;20546;-21
2021/06/25 23:08:38;;;;;;;4.53;3.00;;;21.70;56.70;;;;;;20903105;28;20029;-21
2021/06/25 23:18:39;;;;;;;4.55;3.25;;;21.60;56.10;;;;;;20903061;28;20029;-21
2021/06/25 23:28:39;;;;;;;3.95;2.85;;;21.60;55.90;;;;;;20902636;28;20504;-21
2021/06/25 23:38:40;;;;;;;7.43;2.80;;;21.60;56.10;;;;;;20901379;28;20563;-21
2021/06/25 23:48:40;;;;;;;3.83;2.72;;;21.60;56.10;;;;;;20901244;28;20025;-21
2021/06/25 23:58:41;;;;;;;3.92;2.35;;;21.50;55.90;;;;;;20870001;28;20397;-21
